KDAW

Skyhaven Airport

Rochester, New Hampshire, USA
METAR KDAW 232251Z AUTO 31005KT 10SM OVC036 01/01 A2946 RMK AO2 RAE04UPB04E10 SLP978 P0001 T00060006
Observed Flight Rules
Jan-23 @ 22:51 UTC (53 minutes ago) Visual Flight Rules
Wind Visibility Clouds
310° at 5 knots 10 miles
  • Overcast at 3,600' AGL
Temperatures Readings Precipitation
Current 1°C / 34°F
Dewpoint 1°C / 34°F
Humidity 100%
Altimeter 29.46" Hg
Pressure 997.8 hPa
Elevation 100
Current Rain 0.01
METAR KDAW 232251Z AUTO 31005KT 10SM OVC036 01/01 A2946 RMK AO2 RAE04UPB04E10 SLP978 P0001 T00060006
Observed Flight Rules
Jan-23 @ 22:51 UTC
(53 minutes ago)
VFR
Wind Visibility
310° at 5 knots 10 miles
Clouds
  • Overcast at 3,600' AGL
Temperature Dewpoint
1°C / 34°F 1°C / 34°F
Humidity Altimeter Pressure
100% 29.46" Hg 997.8 hPa
Current Rain
0.01